sensor_id;sensor_type;location;lat;lon;timestamp;P1;durP1;ratioP1;P2;durP2;ratioP2
51686;SDS011;37774;52.192;4.584;2023-02-18T00:01:22;35.10;;;8.57;;
51686;SDS011;37774;52.192;4.584;2023-02-18T00:03:50;42.60;;;8.15;;
51686;SDS011;37774;52.192;4.584;2023-02-18T00:06:18;33.80;;;7.15;;
51686;SDS011;37774;52.192;4.584;2023-02-18T00:08:46;32.97;;;6.38;;
51686;SDS011;37774;52.192;4.584;2023-02-18T00:11:13;34.65;;;8.02;;
51686;SDS011;37774;52.192;4.584;2023-02-18T00:13:41;32.17;;;7.78;;
51686;SDS011;37774;52.192;4.584;2023-02-18T00:16:09;35.40;;;7.35;;
51686;SDS011;37774;52.192;4.584;2023-02-18T00:18:39;29.85;;;6.88;;
51686;SDS011;37774;52.192;4.584;2023-02-18T00:21:06;41.38;;;7.90;;
51686;SDS011;37774;52.192;4.584;2023-02-18T00:23:34;25.88;;;7.47;;
51686;SDS011;37774;52.192;4.584;2023-02-18T00:26:01;37.28;;;8.50;;
51686;SDS011;37774;52.192;4.584;2023-02-18T00:28:30;34.40;;;7.65;;
51686;SDS011;37774;52.192;4.584;2023-02-18T00:30:57;34.05;;;8.10;;
51686;SDS011;37774;52.192;4.584;2023-02-18T00:33:24;42.05;;;8.77;;
51686;SDS011;37774;52.192;4.584;2023-02-18T00:35:52;39.60;;;9.45;;
51686;SDS011;37774;52.192;4.584;2023-02-18T00:38:27;42.75;;;9.43;;
51686;SDS011;37774;52.192;4.584;2023-02-18T00:40:53;34.30;;;10.63;;
51686;SDS011;37774;52.192;4.584;2023-02-18T00:43:20;41.53;;;10.82;;
51686;SDS011;37774;52.192;4.584;2023-02-18T00:45:47;40.78;;;11.73;;
51686;SDS011;37774;52.192;4.584;2023-02-18T00:48:14;43.65;;;11.90;;
51686;SDS011;37774;52.192;4.584;2023-02-18T00:50:41;42.45;;;11.82;;
51686;SDS011;37774;52.192;4.584;2023-02-18T00:53:09;55.15;;;14.15;;
51686;SDS011;37774;52.192;4.584;2023-02-18T00:55:37;41.42;;;14.18;;
51686;SDS011;37774;52.192;4.584;2023-02-18T00:58:04;52.90;;;13.50;;
51686;SDS011;37774;52.192;4.584;2023-02-18T01:00:32;40.00;;;13.15;;
51686;SDS011;37774;52.192;4.584;2023-02-18T01:02:59;40.17;;;13.98;;
51686;SDS011;37774;52.192;4.584;2023-02-18T01:05:26;47.70;;;14.00;;
51686;SDS011;37774;52.192;4.584;2023-02-18T01:07:53;53.95;;;16.80;;
51686;SDS011;37774;52.192;4.584;2023-02-18T01:10:21;43.30;;;15.02;;
51686;SDS011;37774;52.192;4.584;2023-02-18T01:12:48;57.55;;;14.80;;
51686;SDS011;37774;52.192;4.584;2023-02-18T01:15:15;51.38;;;14.55;;
51686;SDS011;37774;52.192;4.584;2023-02-18T01:17:42;60.80;;;15.27;;
51686;SDS011;37774;52.192;4.584;2023-02-18T01:20:10;53.58;;;15.23;;
51686;SDS011;37774;52.192;4.584;2023-02-18T01:22:38;50.47;;;15.88;;
51686;SDS011;37774;52.192;4.584;2023-02-18T01:25:06;39.83;;;15.10;;
51686;SDS011;37774;52.192;4.584;2023-02-18T01:27:35;42.65;;;15.13;;
51686;SDS011;37774;52.192;4.584;2023-02-18T01:30:03;53.17;;;16.77;;
51686;SDS011;37774;52.192;4.584;2023-02-18T01:32:30;45.80;;;15.60;;
51686;SDS011;37774;52.192;4.584;2023-02-18T01:34:59;42.33;;;15.50;;
51686;SDS011;37774;52.192;4.584;2023-02-18T01:37:26;42.33;;;15.85;;
51686;SDS011;37774;52.192;4.584;2023-02-18T01:39:52;46.40;;;15.73;;
51686;SDS011;37774;52.192;4.584;2023-02-18T01:42:20;38.67;;;14.82;;
51686;SDS011;37774;52.192;4.584;2023-02-18T01:44:50;51.20;;;16.45;;
51686;SDS011;37774;52.192;4.584;2023-02-18T01:47:17;42.80;;;14.20;;
51686;SDS011;37774;52.192;4.584;2023-02-18T01:49:45;42.90;;;16.88;;
51686;SDS011;37774;52.192;4.584;2023-02-18T01:52:15;50.83;;;15.63;;
51686;SDS011;37774;52.192;4.584;2023-02-18T01:54:44;50.40;;;16.55;;
51686;SDS011;37774;52.192;4.584;2023-02-18T01:57:14;66.43;;;17.45;;
51686;SDS011;37774;52.192;4.584;2023-02-18T01:59:47;47.35;;;15.23;;
51686;SDS011;37774;52.192;4.584;2023-02-18T02:02:25;51.05;;;15.23;;
51686;SDS011;37774;52.192;4.584;2023-02-18T02:04:53;44.05;;;14.98;;
51686;SDS011;37774;52.192;4.584;2023-02-18T02:07:21;43.78;;;15.68;;
51686;SDS011;37774;52.192;4.584;2023-02-18T02:09:51;50.13;;;16.08;;
51686;SDS011;37774;52.192;4.584;2023-02-18T02:12:29;42.85;;;14.80;;
51686;SDS011;37774;52.192;4.584;2023-02-18T02:15:21;49.38;;;14.63;;
51686;SDS011;37774;52.192;4.584;2023-02-18T02:18:08;40.85;;;15.02;;
51686;SDS011;37774;52.192;4.584;2023-02-18T02:27:11;37.55;;;14.13;;
51686;SDS011;37774;52.192;4.584;2023-02-18T02:32:55;52.58;;;15.70;;
51686;SDS011;37774;52.192;4.584;2023-02-18T02:35:46;40.15;;;13.52;;
51686;SDS011;37774;52.192;4.584;2023-02-18T02:38:21;44.97;;;14.77;;
51686;SDS011;37774;52.192;4.584;2023-02-18T02:40:56;37.65;;;12.82;;
51686;SDS011;37774;52.192;4.584;2023-02-18T02:43:38;39.35;;;13.88;;
51686;SDS011;37774;52.192;4.584;2023-02-18T02:46:16;33.15;;;12.93;;
51686;SDS011;37774;52.192;4.584;2023-02-18T02:48:50;43.30;;;15.23;;
51686;SDS011;37774;52.192;4.584;2023-02-18T02:51:25;43.15;;;13.40;;
51686;SDS011;37774;52.192;4.584;2023-02-18T02:54:07;32.53;;;11.38;;
51686;SDS011;37774;52.192;4.584;2023-02-18T02:56:36;31.95;;;12.80;;
51686;SDS011;37774;52.192;4.584;2023-02-18T02:59:05;26.88;;;10.82;;
51686;SDS011;37774;52.192;4.584;2023-02-18T03:01:35;31.85;;;12.38;;
51686;SDS011;37774;52.192;4.584;2023-02-18T03:04:18;31.67;;;11.73;;
51686;SDS011;37774;52.192;4.584;2023-02-18T03:07:08;38.40;;;11.10;;
51686;SDS011;37774;52.192;4.584;2023-02-18T03:09:46;34.53;;;11.82;;
51686;SDS011;37774;52.192;4.584;2023-02-18T03:12:28;30.45;;;10.57;;
51686;SDS011;37774;52.192;4.584;2023-02-18T03:15:03;23.23;;;9.57;;
51686;SDS011;37774;52.192;4.584;2023-02-18T03:17:34;30.52;;;10.52;;
51686;SDS011;37774;52.192;4.584;2023-02-18T03:20:05;29.38;;;10.70;;
51686;SDS011;37774;52.192;4.584;2023-02-18T03:22:38;30.67;;;9.48;;
51686;SDS011;37774;52.192;4.584;2023-02-18T03:25:07;28.08;;;8.95;;
51686;SDS011;37774;52.192;4.584;2023-02-18T03:27:37;19.92;;;8.32;;
51686;SDS011;37774;52.192;4.584;2023-02-18T03:30:10;24.30;;;7.53;;
51686;SDS011;37774;52.192;4.584;2023-02-18T03:32:39;20.77;;;8.50;;
51686;SDS011;37774;52.192;4.584;2023-02-18T03:35:07;17.58;;;7.95;;
51686;SDS011;37774;52.192;4.584;2023-02-18T03:37:38;16.08;;;7.07;;
51686;SDS011;37774;52.192;4.584;2023-02-18T03:40:09;22.90;;;7.85;;
51686;SDS011;37774;52.192;4.584;2023-02-18T03:42:36;21.40;;;7.10;;
51686;SDS011;37774;52.192;4.584;2023-02-18T03:45:04;20.65;;;7.75;;
51686;SDS011;37774;52.192;4.584;2023-02-18T03:47:31;26.55;;;8.20;;
51686;SDS011;37774;52.192;4.584;2023-02-18T03:49:58;16.25;;;7.70;;
51686;SDS011;37774;52.192;4.584;2023-02-18T03:52:25;22.10;;;7.90;;
51686;SDS011;37774;52.192;4.584;2023-02-18T03:54:53;20.58;;;9.15;;
51686;SDS011;37774;52.192;4.584;2023-02-18T03:57:20;24.10;;;8.82;;
51686;SDS011;37774;52.192;4.584;2023-02-18T03:59:47;27.35;;;11.02;;
51686;SDS011;37774;52.192;4.584;2023-02-18T04:02:14;23.85;;;10.60;;
51686;SDS011;37774;52.192;4.584;2023-02-18T04:04:40;23.63;;;9.45;;
51686;SDS011;37774;52.192;4.584;2023-02-18T04:07:07;25.63;;;8.35;;
51686;SDS011;37774;52.192;4.584;2023-02-18T04:09:34;24.33;;;8.93;;
51686;SDS011;37774;52.192;4.584;2023-02-18T04:12:02;20.88;;;9.48;;
51686;SDS011;37774;52.192;4.584;2023-02-18T04:14:29;29.38;;;9.23;;
51686;SDS011;37774;52.192;4.584;2023-02-18T04:16:56;35.08;;;9.23;;
51686;SDS011;37774;52.192;4.584;2023-02-18T04:19:23;27.13;;;9.88;;
51686;SDS011;37774;52.192;4.584;2023-02-18T04:21:50;25.88;;;10.02;;
51686;SDS011;37774;52.192;4.584;2023-02-18T04:24:17;21.60;;;9.35;;
51686;SDS011;37774;52.192;4.584;2023-02-18T04:26:43;36.90;;;10.55;;
51686;SDS011;37774;52.192;4.584;2023-02-18T04:29:12;23.77;;;8.45;;
51686;SDS011;37774;52.192;4.584;2023-02-18T04:31:38;27.05;;;9.32;;
51686;SDS011;37774;52.192;4.584;2023-02-18T04:34:05;25.08;;;8.57;;
51686;SDS011;37774;52.192;4.584;2023-02-18T04:36:32;25.20;;;8.77;;
51686;SDS011;37774;52.192;4.584;2023-02-18T04:38:59;24.38;;;7.93;;
51686;SDS011;37774;52.192;4.584;2023-02-18T04:41:25;22.65;;;8.30;;
51686;SDS011;37774;52.192;4.584;2023-02-18T04:43:52;25.17;;;7.47;;
51686;SDS011;37774;52.192;4.584;2023-02-18T04:46:20;32.20;;;9.00;;
51686;SDS011;37774;52.192;4.584;2023-02-18T04:48:47;29.88;;;8.27;;
51686;SDS011;37774;52.192;4.584;2023-02-18T04:51:14;18.92;;;7.80;;
51686;SDS011;37774;52.192;4.584;2023-02-18T04:53:41;24.80;;;7.88;;
51686;SDS011;37774;52.192;4.584;2023-02-18T04:56:07;18.00;;;7.13;;
51686;SDS011;37774;52.192;4.584;2023-02-18T04:58:34;29.55;;;7.25;;
51686;SDS011;37774;52.192;4.584;2023-02-18T05:01:01;25.60;;;6.47;;
51686;SDS011;37774;52.192;4.584;2023-02-18T05:03:31;23.17;;;7.40;;
51686;SDS011;37774;52.192;4.584;2023-02-18T05:05:58;17.08;;;6.80;;
51686;SDS011;37774;52.192;4.584;2023-02-18T05:08:24;22.52;;;7.13;;
51686;SDS011;37774;52.192;4.584;2023-02-18T05:10:51;19.10;;;6.50;;
51686;SDS011;37774;52.192;4.584;2023-02-18T05:13:18;19.80;;;5.72;;
51686;SDS011;37774;52.192;4.584;2023-02-18T05:15:47;14.32;;;6.03;;
51686;SDS011;37774;52.192;4.584;2023-02-18T05:18:13;22.92;;;7.28;;
51686;SDS011;37774;52.192;4.584;2023-02-18T05:20:42;22.70;;;7.07;;
51686;SDS011;37774;52.192;4.584;2023-02-18T05:23:09;16.35;;;6.22;;
51686;SDS011;37774;52.192;4.584;2023-02-18T05:25:35;30.65;;;7.45;;
51686;SDS011;37774;52.192;4.584;2023-02-18T05:28:02;12.70;;;6.35;;
51686;SDS011;37774;52.192;4.584;2023-02-18T05:30:29;15.80;;;5.65;;
51686;SDS011;37774;52.192;4.584;2023-02-18T05:32:56;23.52;;;6.45;;
51686;SDS011;37774;52.192;4.584;2023-02-18T05:35:23;23.02;;;6.30;;
51686;SDS011;37774;52.192;4.584;2023-02-18T05:37:51;11.85;;;5.72;;
51686;SDS011;37774;52.192;4.584;2023-02-18T05:40:18;31.73;;;7.30;;
51686;SDS011;37774;52.192;4.584;2023-02-18T05:42:45;17.40;;;6.75;;
51686;SDS011;37774;52.192;4.584;2023-02-18T05:45:12;17.85;;;6.72;;
51686;SDS011;37774;52.192;4.584;2023-02-18T05:47:39;18.25;;;5.78;;
51686;SDS011;37774;52.192;4.584;2023-02-18T05:50:06;30.80;;;6.90;;
51686;SDS011;37774;52.192;4.584;2023-02-18T05:52:33;15.07;;;5.65;;
51686;SDS011;37774;52.192;4.584;2023-02-18T05:55:02;15.23;;;5.72;;
51686;SDS011;37774;52.192;4.584;2023-02-18T05:57:29;15.20;;;4.78;;
51686;SDS011;37774;52.192;4.584;2023-02-18T05:59:56;12.43;;;5.63;;
51686;SDS011;37774;52.192;4.584;2023-02-18T06:02:23;18.45;;;7.03;;
51686;SDS011;37774;52.192;4.584;2023-02-18T06:04:50;13.88;;;6.90;;
51686;SDS011;37774;52.192;4.584;2023-02-18T06:07:17;14.75;;;5.65;;
51686;SDS011;37774;52.192;4.584;2023-02-18T06:09:44;12.18;;;5.75;;
51686;SDS011;37774;52.192;4.584;2023-02-18T06:12:13;18.92;;;6.07;;
51686;SDS011;37774;52.192;4.584;2023-02-18T06:14:40;24.50;;;7.82;;
51686;SDS011;37774;52.192;4.584;2023-02-18T06:17:07;14.75;;;5.38;;
51686;SDS011;37774;52.192;4.584;2023-02-18T06:19:34;11.13;;;4.63;;
51686;SDS011;37774;52.192;4.584;2023-02-18T06:22:00;18.73;;;5.03;;
51686;SDS011;37774;52.192;4.584;2023-02-18T06:24:28;16.77;;;5.50;;
51686;SDS011;37774;52.192;4.584;2023-02-18T06:26:55;29.30;;;5.55;;
51686;SDS011;37774;52.192;4.584;2023-02-18T06:29:23;20.77;;;5.10;;
51686;SDS011;37774;52.192;4.584;2023-02-18T06:31:50;15.00;;;4.60;;
51686;SDS011;37774;52.192;4.584;2023-02-18T06:34:17;16.52;;;4.88;;
51686;SDS011;37774;52.192;4.584;2023-02-18T06:36:44;23.45;;;5.97;;
51686;SDS011;37774;52.192;4.584;2023-02-18T06:39:11;20.42;;;5.47;;
51686;SDS011;37774;52.192;4.584;2023-02-18T06:41:38;18.33;;;5.55;;
51686;SDS011;37774;52.192;4.584;2023-02-18T06:44:05;22.20;;;5.00;;
51686;SDS011;37774;52.192;4.584;2023-02-18T06:46:34;18.30;;;4.15;;
51686;SDS011;37774;52.192;4.584;2023-02-18T06:49:01;20.88;;;4.78;;
51686;SDS011;37774;52.192;4.584;2023-02-18T06:51:28;19.88;;;4.28;;
51686;SDS011;37774;52.192;4.584;2023-02-18T06:53:55;23.98;;;4.95;;
51686;SDS011;37774;52.192;4.584;2023-02-18T06:56:22;15.63;;;3.80;;
51686;SDS011;37774;52.192;4.584;2023-02-18T06:58:49;20.20;;;5.85;;
51686;SDS011;37774;52.192;4.584;2023-02-18T07:01:15;19.58;;;3.78;;
51686;SDS011;37774;52.192;4.584;2023-02-18T07:03:44;16.88;;;4.50;;
51686;SDS011;37774;52.192;4.584;2023-02-18T07:06:11;22.15;;;5.93;;
51686;SDS011;37774;52.192;4.584;2023-02-18T07:08:38;21.60;;;4.63;;
51686;SDS011;37774;52.192;4.584;2023-02-18T07:11:05;9.95;;;3.00;;
51686;SDS011;37774;52.192;4.584;2023-02-18T07:13:33;23.80;;;4.20;;
51686;SDS011;37774;52.192;4.584;2023-02-18T07:15:59;26.50;;;2.47;;
51686;SDS011;37774;52.192;4.584;2023-02-18T07:18:26;18.98;;;2.85;;
51686;SDS011;37774;52.192;4.584;2023-02-18T07:20:55;10.25;;;2.85;;
51686;SDS011;37774;52.192;4.584;2023-02-18T07:23:22;19.10;;;3.67;;
51686;SDS011;37774;52.192;4.584;2023-02-18T07:25:49;13.18;;;2.83;;
51686;SDS011;37774;52.192;4.584;2023-02-18T07:28:15;20.77;;;2.58;;
51686;SDS011;37774;52.192;4.584;2023-02-18T07:30:42;23.52;;;3.45;;
51686;SDS011;37774;52.192;4.584;2023-02-18T07:33:09;17.77;;;2.65;;
51686;SDS011;37774;52.192;4.584;2023-02-18T07:35:38;22.80;;;2.53;;
51686;SDS011;37774;52.192;4.584;2023-02-18T07:38:06;10.07;;;2.13;;
51686;SDS011;37774;52.192;4.584;2023-02-18T07:40:34;9.80;;;2.13;;
51686;SDS011;37774;52.192;4.584;2023-02-18T07:43:01;26.23;;;2.80;;
51686;SDS011;37774;52.192;4.584;2023-02-18T07:45:28;13.10;;;1.58;;
51686;SDS011;37774;52.192;4.584;2023-02-18T07:47:55;29.83;;;4.50;;
51686;SDS011;37774;52.192;4.584;2023-02-18T07:50:21;15.70;;;2.53;;
51686;SDS011;37774;52.192;4.584;2023-02-18T07:52:48;16.30;;;2.17;;
51686;SDS011;37774;52.192;4.584;2023-02-18T07:55:16;19.35;;;1.73;;
51686;SDS011;37774;52.192;4.584;2023-02-18T07:57:43;10.05;;;1.77;;
51686;SDS011;37774;52.192;4.584;2023-02-18T08:00:25;29.90;;;2.70;;
51686;SDS011;37774;52.192;4.584;2023-02-18T08:02:51;23.70;;;2.67;;
51686;SDS011;37774;52.192;4.584;2023-02-18T08:05:18;24.30;;;2.00;;
51686;SDS011;37774;52.192;4.584;2023-02-18T08:07:46;16.27;;;2.67;;
51686;SDS011;37774;52.192;4.584;2023-02-18T08:10:13;34.03;;;3.47;;
51686;SDS011;37774;52.192;4.584;2023-02-18T08:12:41;16.65;;;2.55;;
51686;SDS011;37774;52.192;4.584;2023-02-18T08:15:08;13.30;;;1.88;;
51686;SDS011;37774;52.192;4.584;2023-02-18T08:17:35;19.98;;;2.08;;
51686;SDS011;37774;52.192;4.584;2023-02-18T08:20:02;18.13;;;1.67;;
51686;SDS011;37774;52.192;4.584;2023-02-18T08:22:29;28.38;;;2.22;;
51686;SDS011;37774;52.192;4.584;2023-02-18T08:24:56;17.58;;;2.05;;
51686;SDS011;37774;52.192;4.584;2023-02-18T08:27:23;17.98;;;2.50;;
51686;SDS011;37774;52.192;4.584;2023-02-18T08:29:52;10.57;;;2.30;;
51686;SDS011;37774;52.192;4.584;2023-02-18T08:32:20;18.45;;;2.40;;
51686;SDS011;37774;52.192;4.584;2023-02-18T08:34:46;17.30;;;2.47;;
51686;SDS011;37774;52.192;4.584;2023-02-18T08:37:14;16.55;;;2.45;;
51686;SDS011;37774;52.192;4.584;2023-02-18T08:39:41;19.65;;;2.95;;
51686;SDS011;37774;52.192;4.584;2023-02-18T08:42:08;13.05;;;2.13;;
51686;SDS011;37774;52.192;4.584;2023-02-18T08:44:35;17.98;;;2.72;;
51686;SDS011;37774;52.192;4.584;2023-02-18T08:47:03;19.42;;;2.80;;
51686;SDS011;37774;52.192;4.584;2023-02-18T08:49:30;21.33;;;3.53;;
51686;SDS011;37774;52.192;4.584;2023-02-18T08:51:57;20.20;;;2.65;;
51686;SDS011;37774;52.192;4.584;2023-02-18T08:54:24;21.88;;;2.40;;
51686;SDS011;37774;52.192;4.584;2023-02-18T08:56:52;13.65;;;3.13;;
51686;SDS011;37774;52.192;4.584;2023-02-18T08:59:19;21.58;;;1.95;;
51686;SDS011;37774;52.192;4.584;2023-02-18T09:01:46;12.63;;;2.47;;
51686;SDS011;37774;52.192;4.584;2023-02-18T09:04:15;26.27;;;2.33;;
51686;SDS011;37774;52.192;4.584;2023-02-18T09:06:42;31.65;;;2.53;;
51686;SDS011;37774;52.192;4.584;2023-02-18T09:09:10;18.10;;;2.97;;
51686;SDS011;37774;52.192;4.584;2023-02-18T09:11:44;19.35;;;3.22;;
51686;SDS011;37774;52.192;4.584;2023-02-18T09:14:23;23.90;;;3.08;;
51686;SDS011;37774;52.192;4.584;2023-02-18T09:16:50;29.85;;;2.92;;
51686;SDS011;37774;52.192;4.584;2023-02-18T09:19:19;23.08;;;2.75;;
51686;SDS011;37774;52.192;4.584;2023-02-18T09:21:45;20.23;;;2.75;;
51686;SDS011;37774;52.192;4.584;2023-02-18T09:24:12;23.23;;;2.35;;
51686;SDS011;37774;52.192;4.584;2023-02-18T09:26:39;26.92;;;2.65;;
51686;SDS011;37774;52.192;4.584;2023-02-18T09:29:06;25.67;;;4.65;;
51686;SDS011;37774;52.192;4.584;2023-02-18T09:31:34;25.02;;;2.63;;
51686;SDS011;37774;52.192;4.584;2023-02-18T09:34:02;21.90;;;2.58;;
51686;SDS011;37774;52.192;4.584;2023-02-18T09:36:31;14.70;;;1.67;;
51686;SDS011;37774;52.192;4.584;2023-02-18T09:38:58;16.75;;;3.70;;
51686;SDS011;37774;52.192;4.584;2023-02-18T09:41:29;23.77;;;3.50;;
51686;SDS011;37774;52.192;4.584;2023-02-18T09:44:03;13.70;;;3.33;;
51686;SDS011;37774;52.192;4.584;2023-02-18T09:46:35;18.25;;;3.42;;
51686;SDS011;37774;52.192;4.584;2023-02-18T09:49:06;25.33;;;3.35;;
51686;SDS011;37774;52.192;4.584;2023-02-18T09:51:41;17.58;;;2.25;;
51686;SDS011;37774;52.192;4.584;2023-02-18T09:54:08;36.20;;;3.70;;
51686;SDS011;37774;52.192;4.584;2023-02-18T09:56:37;18.70;;;2.30;;
51686;SDS011;37774;52.192;4.584;2023-02-18T09:59:08;23.90;;;2.72;;
51686;SDS011;37774;52.192;4.584;2023-02-18T10:01:40;28.83;;;2.47;;
51686;SDS011;37774;52.192;4.584;2023-02-18T10:04:09;19.90;;;2.70;;
51686;SDS011;37774;52.192;4.584;2023-02-18T10:06:42;13.00;;;2.35;;
51686;SDS011;37774;52.192;4.584;2023-02-18T10:09:13;14.75;;;2.88;;
51686;SDS011;37774;52.192;4.584;2023-02-18T10:11:47;26.40;;;3.85;;
51686;SDS011;37774;52.192;4.584;2023-02-18T10:14:17;25.35;;;3.30;;
51686;SDS011;37774;52.192;4.584;2023-02-18T10:16:44;23.90;;;2.72;;
51686;SDS011;37774;52.192;4.584;2023-02-18T10:19:18;29.70;;;2.78;;
51686;SDS011;37774;52.192;4.584;2023-02-18T10:21:49;22.20;;;3.13;;
51686;SDS011;37774;52.192;4.584;2023-02-18T10:24:20;16.40;;;2.55;;
51686;SDS011;37774;52.192;4.584;2023-02-18T10:26:54;18.08;;;2.38;;
51686;SDS011;37774;52.192;4.584;2023-02-18T10:29:21;11.02;;;2.13;;
51686;SDS011;37774;52.192;4.584;2023-02-18T10:31:50;13.88;;;1.98;;
51686;SDS011;37774;52.192;4.584;2023-02-18T10:34:22;15.05;;;3.55;;
51686;SDS011;37774;52.192;4.584;2023-02-18T10:36:59;29.02;;;2.97;;
51686;SDS011;37774;52.192;4.584;2023-02-18T12:07:21;17.38;;;2.38;;
51686;SDS011;37774;52.192;4.584;2023-02-18T12:09:53;14.75;;;1.75;;
51686;SDS011;37774;52.192;4.584;2023-02-18T12:12:25;10.15;;;1.30;;
51686;SDS011;37774;52.192;4.584;2023-02-18T12:14:55;6.10;;;1.25;;
51686;SDS011;37774;52.192;4.584;2023-02-18T12:17:26;19.75;;;2.00;;
51686;SDS011;37774;52.192;4.584;2023-02-18T12:20:11;17.77;;;2.35;;
51686;SDS011;37774;52.192;4.584;2023-02-18T12:22:52;13.30;;;1.85;;
51686;SDS011;37774;52.192;4.584;2023-02-18T12:25:30;13.52;;;1.15;;
51686;SDS011;37774;52.192;4.584;2023-02-18T12:28:10;8.55;;;1.65;;
51686;SDS011;37774;52.192;4.584;2023-02-18T12:33:45;18.85;;;1.65;;
51686;SDS011;37774;52.192;4.584;2023-02-18T12:36:26;20.30;;;1.83;;
51686;SDS011;37774;52.192;4.584;2023-02-18T12:39:10;15.40;;;1.63;;
51686;SDS011;37774;52.192;4.584;2023-02-18T12:44:44;7.00;;;1.50;;
51686;SDS011;37774;52.192;4.584;2023-02-18T12:47:30;19.85;;;2.17;;
51686;SDS011;37774;52.192;4.584;2023-02-18T12:50:25;11.85;;;2.10;;
51686;SDS011;37774;52.192;4.584;2023-02-18T12:53:15;11.20;;;2.03;;
51686;SDS011;37774;52.192;4.584;2023-02-18T12:56:01;18.35;;;1.85;;
51686;SDS011;37774;52.192;4.584;2023-02-18T12:58:44;18.08;;;1.95;;
51686;SDS011;37774;52.192;4.584;2023-02-18T13:01:32;11.35;;;2.17;;
51686;SDS011;37774;52.192;4.584;2023-02-18T13:09:52;12.77;;;1.30;;
51686;SDS011;37774;52.192;4.584;2023-02-18T13:12:33;15.75;;;2.92;;
51686;SDS011;37774;52.192;4.584;2023-02-18T13:15:10;7.90;;;1.45;;
51686;SDS011;37774;52.192;4.584;2023-02-18T13:17:41;9.57;;;1.83;;
51686;SDS011;37774;52.192;4.584;2023-02-18T13:20:13;11.07;;;1.75;;
51686;SDS011;37774;52.192;4.584;2023-02-18T13:22:46;16.13;;;1.73;;
51686;SDS011;37774;52.192;4.584;2023-02-18T13:25:17;10.40;;;1.38;;
51686;SDS011;37774;52.192;4.584;2023-02-18T13:27:49;9.80;;;1.20;;
51686;SDS011;37774;52.192;4.584;2023-02-18T13:30:25;15.00;;;2.80;;
51686;SDS011;37774;52.192;4.584;2023-02-18T13:32:58;16.67;;;2.05;;
51686;SDS011;37774;52.192;4.584;2023-02-18T13:35:34;11.02;;;1.77;;
51686;SDS011;37774;52.192;4.584;2023-02-18T13:38:19;18.40;;;2.88;;
51686;SDS011;37774;52.192;4.584;2023-02-18T13:41:03;11.13;;;1.92;;
51686;SDS011;37774;52.192;4.584;2023-02-18T13:43:33;14.82;;;2.08;;
51686;SDS011;37774;52.192;4.584;2023-02-18T13:46:07;7.13;;;1.55;;
51686;SDS011;37774;52.192;4.584;2023-02-18T13:48:39;2.80;;;0.73;;
51686;SDS011;37774;52.192;4.584;2023-02-18T13:51:13;15.82;;;2.03;;
51686;SDS011;37774;52.192;4.584;2023-02-18T13:53:43;13.13;;;1.80;;
51686;SDS011;37774;52.192;4.584;2023-02-18T13:56:20;17.63;;;2.40;;
51686;SDS011;37774;52.192;4.584;2023-02-18T13:58:54;15.75;;;2.90;;
51686;SDS011;37774;52.192;4.584;2023-02-18T14:01:37;10.02;;;2.28;;
51686;SDS011;37774;52.192;4.584;2023-02-18T14:07:28;16.08;;;3.10;;
51686;SDS011;37774;52.192;4.584;2023-02-18T14:10:06;12.95;;;2.28;;
51686;SDS011;37774;52.192;4.584;2023-02-18T14:15:55;11.65;;;1.50;;
51686;SDS011;37774;52.192;4.584;2023-02-18T14:18:27;11.60;;;2.40;;
51686;SDS011;37774;52.192;4.584;2023-02-18T14:21:15;10.05;;;1.77;;
51686;SDS011;37774;52.192;4.584;2023-02-18T14:23:54;10.60;;;1.52;;
51686;SDS011;37774;52.192;4.584;2023-02-18T14:26:24;7.28;;;1.55;;
51686;SDS011;37774;52.192;4.584;2023-02-18T14:28:55;11.13;;;1.70;;
51686;SDS011;37774;52.192;4.584;2023-02-18T14:31:29;17.35;;;2.03;;
51686;SDS011;37774;52.192;4.584;2023-02-18T14:34:13;9.65;;;2.47;;
51686;SDS011;37774;52.192;4.584;2023-02-18T14:40:19;25.92;;;2.28;;
51686;SDS011;37774;52.192;4.584;2023-02-18T14:42:54;14.27;;;2.15;;
51686;SDS011;37774;52.192;4.584;2023-02-18T14:45:31;21.55;;;2.03;;
51686;SDS011;37774;52.192;4.584;2023-02-18T14:48:13;15.48;;;1.85;;
51686;SDS011;37774;52.192;4.584;2023-02-18T14:50:52;16.08;;;2.47;;
51686;SDS011;37774;52.192;4.584;2023-02-18T14:53:21;22.63;;;2.83;;
51686;SDS011;37774;52.192;4.584;2023-02-18T14:55:50;9.43;;;1.55;;
51686;SDS011;37774;52.192;4.584;2023-02-18T14:58:25;7.22;;;1.95;;
51686;SDS011;37774;52.192;4.584;2023-02-18T15:00:57;17.30;;;1.60;;
51686;SDS011;37774;52.192;4.584;2023-02-18T15:03:33;11.07;;;2.28;;
51686;SDS011;37774;52.192;4.584;2023-02-18T15:05:59;11.38;;;1.90;;
51686;SDS011;37774;52.192;4.584;2023-02-18T15:08:26;13.80;;;1.95;;
51686;SDS011;37774;52.192;4.584;2023-02-18T15:11:04;17.45;;;1.70;;
51686;SDS011;37774;52.192;4.584;2023-02-18T15:13:34;9.45;;;2.70;;
51686;SDS011;37774;52.192;4.584;2023-02-18T15:16:04;9.63;;;2.10;;
51686;SDS011;37774;52.192;4.584;2023-02-18T15:18:35;19.40;;;3.03;;
51686;SDS011;37774;52.192;4.584;2023-02-18T15:21:03;16.23;;;3.33;;
51686;SDS011;37774;52.192;4.584;2023-02-18T15:23:33;14.73;;;1.80;;
51686;SDS011;37774;52.192;4.584;2023-02-18T15:26:02;11.10;;;2.05;;
51686;SDS011;37774;52.192;4.584;2023-02-18T15:28:30;12.48;;;2.03;;
51686;SDS011;37774;52.192;4.584;2023-02-18T15:30:58;16.92;;;2.40;;
51686;SDS011;37774;52.192;4.584;2023-02-18T15:33:27;13.70;;;1.80;;
51686;SDS011;37774;52.192;4.584;2023-02-18T15:36:00;25.00;;;2.38;;
51686;SDS011;37774;52.192;4.584;2023-02-18T15:38:27;21.48;;;1.98;;
51686;SDS011;37774;52.192;4.584;2023-02-18T15:40:55;12.57;;;2.67;;
51686;SDS011;37774;52.192;4.584;2023-02-18T15:43:22;19.02;;;2.58;;
51686;SDS011;37774;52.192;4.584;2023-02-18T15:45:51;20.20;;;2.60;;
51686;SDS011;37774;52.192;4.584;2023-02-18T15:48:27;11.23;;;1.50;;
51686;SDS011;37774;52.192;4.584;2023-02-18T15:50:57;15.10;;;2.13;;
51686;SDS011;37774;52.192;4.584;2023-02-18T15:53:29;12.48;;;2.22;;
51686;SDS011;37774;52.192;4.584;2023-02-18T15:56:04;10.65;;;2.75;;
51686;SDS011;37774;52.192;4.584;2023-02-18T15:58:32;11.20;;;1.85;;
51686;SDS011;37774;52.192;4.584;2023-02-18T16:01:00;14.52;;;1.80;;
51686;SDS011;37774;52.192;4.584;2023-02-18T16:03:28;23.95;;;4.13;;
51686;SDS011;37774;52.192;4.584;2023-02-18T16:06:10;16.10;;;2.45;;
51686;SDS011;37774;52.192;4.584;2023-02-18T16:08:53;20.53;;;3.23;;
51686;SDS011;37774;52.192;4.584;2023-02-18T16:11:22;21.88;;;2.30;;
51686;SDS011;37774;52.192;4.584;2023-02-18T16:13:51;18.33;;;2.65;;
51686;SDS011;37774;52.192;4.584;2023-02-18T16:16:19;11.40;;;2.22;;
51686;SDS011;37774;52.192;4.584;2023-02-18T16:18:50;19.00;;;2.05;;
51686;SDS011;37774;52.192;4.584;2023-02-18T16:21:24;19.55;;;2.35;;
51686;SDS011;37774;52.192;4.584;2023-02-18T16:24:00;12.25;;;2.30;;
51686;SDS011;37774;52.192;4.584;2023-02-18T16:26:29;24.88;;;2.63;;
51686;SDS011;37774;52.192;4.584;2023-02-18T16:29:09;23.90;;;3.70;;
51686;SDS011;37774;52.192;4.584;2023-02-18T16:31:38;13.57;;;2.83;;
51686;SDS011;37774;52.192;4.584;2023-02-18T16:34:05;11.75;;;1.67;;
51686;SDS011;37774;52.192;4.584;2023-02-18T16:36:32;21.55;;;2.85;;
51686;SDS011;37774;52.192;4.584;2023-02-18T16:39:00;21.80;;;3.95;;
51686;SDS011;37774;52.192;4.584;2023-02-18T16:41:27;20.13;;;3.08;;
51686;SDS011;37774;52.192;4.584;2023-02-18T16:43:54;6.82;;;1.77;;
51686;SDS011;37774;52.192;4.584;2023-02-18T16:46:22;20.10;;;2.30;;
51686;SDS011;37774;52.192;4.584;2023-02-18T16:48:50;31.50;;;3.25;;
51686;SDS011;37774;52.192;4.584;2023-02-18T16:51:20;22.98;;;2.67;;